sensor_id;sensor_type;location;lat;lon;timestamp;P1;durP1;ratioP1;P2;durP2;ratioP2
18378;SDS011;27025;51.986;5.984;2023-06-26T00:00:19;10.15;;;9.15;;
18378;SDS011;27025;51.986;5.984;2023-06-26T00:02:45;9.68;;;8.88;;
18378;SDS011;27025;51.986;5.984;2023-06-26T00:05:11;9.38;;;8.57;;
18378;SDS011;27025;51.986;5.984;2023-06-26T00:07:38;9.93;;;9.02;;
18378;SDS011;27025;51.986;5.984;2023-06-26T00:10:04;9.30;;;8.48;;
18378;SDS011;27025;51.986;5.984;2023-06-26T00:12:31;9.55;;;8.70;;
18378;SDS011;27025;51.986;5.984;2023-06-26T00:14:57;9.85;;;9.05;;
18378;SDS011;27025;51.986;5.984;2023-06-26T00:17:23;9.40;;;8.60;;
18378;SDS011;27025;51.986;5.984;2023-06-26T00:19:49;10.32;;;9.43;;
18378;SDS011;27025;51.986;5.984;2023-06-26T00:22:16;10.00;;;9.10;;
18378;SDS011;27025;51.986;5.984;2023-06-26T00:24:42;10.57;;;9.68;;
18378;SDS011;27025;51.986;5.984;2023-06-26T00:27:09;9.95;;;9.05;;
18378;SDS011;27025;51.986;5.984;2023-06-26T00:29:35;10.02;;;9.15;;
18378;SDS011;27025;51.986;5.984;2023-06-26T00:32:03;9.35;;;8.60;;
18378;SDS011;27025;51.986;5.984;2023-06-26T00:34:29;10.40;;;9.45;;
18378;SDS011;27025;51.986;5.984;2023-06-26T00:36:55;10.15;;;9.25;;
18378;SDS011;27025;51.986;5.984;2023-06-26T00:39:21;10.40;;;9.50;;
18378;SDS011;27025;51.986;5.984;2023-06-26T00:41:50;10.57;;;9.68;;
18378;SDS011;27025;51.986;5.984;2023-06-26T00:44:18;10.30;;;9.40;;
18378;SDS011;27025;51.986;5.984;2023-06-26T00:46:45;10.10;;;9.20;;
18378;SDS011;27025;51.986;5.984;2023-06-26T00:49:11;10.70;;;9.70;;
18378;SDS011;27025;51.986;5.984;2023-06-26T00:51:37;10.45;;;9.45;;
18378;SDS011;27025;51.986;5.984;2023-06-26T00:54:04;10.38;;;9.50;;
18378;SDS011;27025;51.986;5.984;2023-06-26T00:56:31;10.82;;;9.80;;
18378;SDS011;27025;51.986;5.984;2023-06-26T00:58:57;10.50;;;9.60;;
18378;SDS011;27025;51.986;5.984;2023-06-26T01:01:23;10.90;;;9.77;;
18378;SDS011;27025;51.986;5.984;2023-06-26T01:03:50;10.27;;;9.25;;
18378;SDS011;27025;51.986;5.984;2023-06-26T01:06:17;9.95;;;9.05;;
18378;SDS011;27025;51.986;5.984;2023-06-26T01:08:43;10.13;;;9.27;;
18378;SDS011;27025;51.986;5.984;2023-06-26T01:11:10;9.88;;;8.98;;
18378;SDS011;27025;51.986;5.984;2023-06-26T01:13:36;10.02;;;9.10;;
18378;SDS011;27025;51.986;5.984;2023-06-26T01:16:02;10.88;;;9.77;;
18378;SDS011;27025;51.986;5.984;2023-06-26T01:18:29;10.18;;;9.27;;
18378;SDS011;27025;51.986;5.984;2023-06-26T01:20:56;10.05;;;9.25;;
18378;SDS011;27025;51.986;5.984;2023-06-26T01:23:37;10.70;;;9.70;;
18378;SDS011;27025;51.986;5.984;2023-06-26T01:28:33;11.07;;;10.02;;
18378;SDS011;27025;51.986;5.984;2023-06-26T01:31:00;11.30;;;10.23;;
18378;SDS011;27025;51.986;5.984;2023-06-26T01:33:26;11.00;;;9.90;;
18378;SDS011;27025;51.986;5.984;2023-06-26T01:35:52;10.25;;;9.45;;
18378;SDS011;27025;51.986;5.984;2023-06-26T01:38:19;11.05;;;10.00;;
18378;SDS011;27025;51.986;5.984;2023-06-26T01:40:46;10.57;;;9.57;;
18378;SDS011;27025;51.986;5.984;2023-06-26T01:43:20;11.02;;;9.95;;
18378;SDS011;27025;51.986;5.984;2023-06-26T01:45:50;10.77;;;9.80;;
18378;SDS011;27025;51.986;5.984;2023-06-26T01:48:17;11.18;;;9.90;;
18378;SDS011;27025;51.986;5.984;2023-06-26T01:50:44;10.38;;;9.48;;
18378;SDS011;27025;51.986;5.984;2023-06-26T01:53:11;11.32;;;10.23;;
18378;SDS011;27025;51.986;5.984;2023-06-26T01:55:51;11.13;;;10.13;;
18378;SDS011;27025;51.986;5.984;2023-06-26T01:58:22;11.32;;;10.35;;
18378;SDS011;27025;51.986;5.984;2023-06-26T02:00:49;12.13;;;11.02;;
18378;SDS011;27025;51.986;5.984;2023-06-26T02:03:15;13.00;;;11.60;;
18378;SDS011;27025;51.986;5.984;2023-06-26T02:05:41;12.90;;;11.65;;
18378;SDS011;27025;51.986;5.984;2023-06-26T02:08:13;12.75;;;11.15;;
18378;SDS011;27025;51.986;5.984;2023-06-26T02:10:39;12.63;;;11.52;;
18378;SDS011;27025;51.986;5.984;2023-06-26T02:13:05;12.10;;;10.93;;
18378;SDS011;27025;51.986;5.984;2023-06-26T02:15:31;11.95;;;10.75;;
18378;SDS011;27025;51.986;5.984;2023-06-26T02:17:57;12.00;;;10.90;;
18378;SDS011;27025;51.986;5.984;2023-06-26T02:20:23;12.30;;;11.10;;
18378;SDS011;27025;51.986;5.984;2023-06-26T02:22:49;12.27;;;10.15;;
18378;SDS011;27025;51.986;5.984;2023-06-26T02:25:15;14.48;;;10.32;;
18378;SDS011;27025;51.986;5.984;2023-06-26T02:27:41;10.73;;;9.20;;
18378;SDS011;27025;51.986;5.984;2023-06-26T02:30:08;9.68;;;8.55;;
18378;SDS011;27025;51.986;5.984;2023-06-26T02:32:35;8.98;;;8.15;;
18378;SDS011;27025;51.986;5.984;2023-06-26T02:35:01;9.60;;;7.97;;
18378;SDS011;27025;51.986;5.984;2023-06-26T02:37:27;6.93;;;6.22;;
18378;SDS011;27025;51.986;5.984;2023-06-26T02:39:53;7.43;;;6.65;;
18378;SDS011;27025;51.986;5.984;2023-06-26T02:42:19;7.53;;;6.05;;
18378;SDS011;27025;51.986;5.984;2023-06-26T02:44:45;7.50;;;6.68;;
18378;SDS011;27025;51.986;5.984;2023-06-26T02:47:11;10.18;;;7.00;;
18378;SDS011;27025;51.986;5.984;2023-06-26T02:49:37;8.82;;;6.68;;
18378;SDS011;27025;51.986;5.984;2023-06-26T02:52:03;10.90;;;7.10;;
18378;SDS011;27025;51.986;5.984;2023-06-26T02:54:29;7.65;;;5.85;;
18378;SDS011;27025;51.986;5.984;2023-06-26T02:56:55;10.65;;;6.05;;
18378;SDS011;27025;51.986;5.984;2023-06-26T02:59:21;9.68;;;5.97;;
18378;SDS011;27025;51.986;5.984;2023-06-26T03:01:47;7.47;;;5.60;;
18378;SDS011;27025;51.986;5.984;2023-06-26T03:04:13;9.27;;;5.50;;
18378;SDS011;27025;51.986;5.984;2023-06-26T03:06:40;9.02;;;5.70;;
18378;SDS011;27025;51.986;5.984;2023-06-26T03:09:06;12.30;;;5.95;;
18378;SDS011;27025;51.986;5.984;2023-06-26T03:11:32;9.93;;;5.80;;
18378;SDS011;27025;51.986;5.984;2023-06-26T03:13:58;8.07;;;5.07;;
18378;SDS011;27025;51.986;5.984;2023-06-26T03:16:24;8.98;;;5.50;;
18378;SDS011;27025;51.986;5.984;2023-06-26T03:18:50;10.20;;;5.90;;
18378;SDS011;27025;51.986;5.984;2023-06-26T03:21:16;7.57;;;5.40;;
18378;SDS011;27025;51.986;5.984;2023-06-26T03:23:42;9.98;;;5.75;;
18378;SDS011;27025;51.986;5.984;2023-06-26T03:26:08;7.85;;;5.45;;
18378;SDS011;27025;51.986;5.984;2023-06-26T03:28:34;10.88;;;5.65;;
18378;SDS011;27025;51.986;5.984;2023-06-26T03:31:01;10.18;;;5.78;;
18378;SDS011;27025;51.986;5.984;2023-06-26T03:33:27;9.68;;;5.35;;
18378;SDS011;27025;51.986;5.984;2023-06-26T03:35:53;8.48;;;5.43;;
18378;SDS011;27025;51.986;5.984;2023-06-26T03:38:19;12.40;;;5.45;;
18378;SDS011;27025;51.986;5.984;2023-06-26T03:40:45;7.82;;;5.40;;
18378;SDS011;27025;51.986;5.984;2023-06-26T03:43:11;10.40;;;5.70;;
18378;SDS011;27025;51.986;5.984;2023-06-26T03:45:37;9.52;;;5.35;;
18378;SDS011;27025;51.986;5.984;2023-06-26T03:48:03;9.15;;;5.13;;
18378;SDS011;27025;51.986;5.984;2023-06-26T03:50:29;14.38;;;6.00;;
18378;SDS011;27025;51.986;5.984;2023-06-26T03:52:55;10.25;;;5.45;;
18378;SDS011;27025;51.986;5.984;2023-06-26T03:55:21;12.05;;;5.93;;
18378;SDS011;27025;51.986;5.984;2023-06-26T03:57:48;9.38;;;5.75;;
18378;SDS011;27025;51.986;5.984;2023-06-26T04:00:14;10.85;;;6.53;;
18378;SDS011;27025;51.986;5.984;2023-06-26T04:02:40;12.10;;;6.53;;
18378;SDS011;27025;51.986;5.984;2023-06-26T04:05:06;9.95;;;5.95;;
18378;SDS011;27025;51.986;5.984;2023-06-26T04:07:32;10.00;;;5.70;;
18378;SDS011;27025;51.986;5.984;2023-06-26T04:09:59;13.27;;;5.93;;
18378;SDS011;27025;51.986;5.984;2023-06-26T04:12:25;9.95;;;5.70;;
18378;SDS011;27025;51.986;5.984;2023-06-26T04:14:51;13.52;;;5.93;;
18378;SDS011;27025;51.986;5.984;2023-06-26T04:17:17;13.77;;;6.03;;
18378;SDS011;27025;51.986;5.984;2023-06-26T04:19:43;10.27;;;5.65;;
18378;SDS011;27025;51.986;5.984;2023-06-26T04:22:09;11.70;;;6.03;;
18378;SDS011;27025;51.986;5.984;2023-06-26T04:24:35;10.93;;;6.05;;
18378;SDS011;27025;51.986;5.984;2023-06-26T04:27:01;10.20;;;5.93;;
18378;SDS011;27025;51.986;5.984;2023-06-26T04:29:28;13.70;;;6.67;;
18378;SDS011;27025;51.986;5.984;2023-06-26T04:31:54;15.27;;;6.28;;
18378;SDS011;27025;51.986;5.984;2023-06-26T04:34:24;15.20;;;7.13;;
18378;SDS011;27025;51.986;5.984;2023-06-26T04:36:50;13.73;;;6.18;;
18378;SDS011;27025;51.986;5.984;2023-06-26T04:39:16;17.17;;;6.57;;
18378;SDS011;27025;51.986;5.984;2023-06-26T04:41:42;16.50;;;6.20;;
18378;SDS011;27025;51.986;5.984;2023-06-26T04:44:08;16.25;;;7.07;;
18378;SDS011;27025;51.986;5.984;2023-06-26T04:46:34;13.17;;;6.83;;
18378;SDS011;27025;51.986;5.984;2023-06-26T04:49:00;14.73;;;6.38;;
18378;SDS011;27025;51.986;5.984;2023-06-26T04:51:28;13.93;;;6.35;;
18378;SDS011;27025;51.986;5.984;2023-06-26T04:53:54;19.05;;;7.00;;
18378;SDS011;27025;51.986;5.984;2023-06-26T04:56:20;14.20;;;6.60;;
18378;SDS011;27025;51.986;5.984;2023-06-26T04:58:46;19.23;;;7.15;;
18378;SDS011;27025;51.986;5.984;2023-06-26T05:01:12;16.52;;;6.25;;
18378;SDS011;27025;51.986;5.984;2023-06-26T05:03:38;19.47;;;6.60;;
18378;SDS011;27025;51.986;5.984;2023-06-26T05:06:04;15.90;;;6.80;;
18378;SDS011;27025;51.986;5.984;2023-06-26T05:08:30;16.03;;;6.80;;
18378;SDS011;27025;51.986;5.984;2023-06-26T05:10:56;17.45;;;6.72;;
18378;SDS011;27025;51.986;5.984;2023-06-26T05:13:24;15.25;;;6.82;;
18378;SDS011;27025;51.986;5.984;2023-06-26T05:15:50;17.85;;;7.28;;
18378;SDS011;27025;51.986;5.984;2023-06-26T05:18:16;13.23;;;6.50;;
18378;SDS011;27025;51.986;5.984;2023-06-26T05:20:42;12.70;;;7.38;;
18378;SDS011;27025;51.986;5.984;2023-06-26T05:23:08;15.03;;;6.50;;
18378;SDS011;27025;51.986;5.984;2023-06-26T05:25:36;13.70;;;6.40;;
18378;SDS011;27025;51.986;5.984;2023-06-26T05:28:02;13.77;;;6.07;;
18378;SDS011;27025;51.986;5.984;2023-06-26T05:30:35;17.33;;;6.80;;
18378;SDS011;27025;51.986;5.984;2023-06-26T05:33:01;18.03;;;7.40;;
18378;SDS011;27025;51.986;5.984;2023-06-26T05:35:30;18.17;;;6.47;;
18378;SDS011;27025;51.986;5.984;2023-06-26T05:37:57;13.98;;;6.65;;
18378;SDS011;27025;51.986;5.984;2023-06-26T05:40:23;14.00;;;6.40;;
18378;SDS011;27025;51.986;5.984;2023-06-26T05:42:49;17.08;;;6.65;;
18378;SDS011;27025;51.986;5.984;2023-06-26T05:45:15;16.23;;;6.87;;
18378;SDS011;27025;51.986;5.984;2023-06-26T05:47:42;13.70;;;6.45;;
18378;SDS011;27025;51.986;5.984;2023-06-26T05:50:08;13.93;;;6.22;;
18378;SDS011;27025;51.986;5.984;2023-06-26T05:52:34;15.63;;;6.65;;
18378;SDS011;27025;51.986;5.984;2023-06-26T05:55:01;10.85;;;6.07;;
18378;SDS011;27025;51.986;5.984;2023-06-26T05:57:27;12.13;;;5.77;;
18378;SDS011;27025;51.986;5.984;2023-06-26T05:59:54;13.40;;;5.75;;
18378;SDS011;27025;51.986;5.984;2023-06-26T06:02:20;12.73;;;6.03;;
18378;SDS011;27025;51.986;5.984;2023-06-26T06:04:46;13.95;;;5.55;;
18378;SDS011;27025;51.986;5.984;2023-06-26T06:07:12;11.88;;;5.68;;
18378;SDS011;27025;51.986;5.984;2023-06-26T06:09:39;11.38;;;5.55;;
18378;SDS011;27025;51.986;5.984;2023-06-26T06:12:05;12.57;;;5.18;;
18378;SDS011;27025;51.986;5.984;2023-06-26T06:14:32;8.45;;;5.00;;
18378;SDS011;27025;51.986;5.984;2023-06-26T06:16:58;8.88;;;5.00;;
18378;SDS011;27025;51.986;5.984;2023-06-26T06:19:24;12.10;;;5.23;;
18378;SDS011;27025;51.986;5.984;2023-06-26T06:21:50;11.20;;;5.20;;
18378;SDS011;27025;51.986;5.984;2023-06-26T06:24:16;8.52;;;4.43;;
18378;SDS011;27025;51.986;5.984;2023-06-26T06:26:42;11.10;;;4.70;;
18378;SDS011;27025;51.986;5.984;2023-06-26T06:29:09;9.07;;;4.53;;
18378;SDS011;27025;51.986;5.984;2023-06-26T06:31:35;11.05;;;4.97;;
18378;SDS011;27025;51.986;5.984;2023-06-26T06:34:01;5.60;;;4.00;;
18378;SDS011;27025;51.986;5.984;2023-06-26T06:36:27;9.48;;;4.85;;
18378;SDS011;27025;51.986;5.984;2023-06-26T06:38:53;8.20;;;4.15;;
18378;SDS011;27025;51.986;5.984;2023-06-26T06:41:19;9.13;;;4.05;;
18378;SDS011;27025;51.986;5.984;2023-06-26T06:43:45;8.27;;;3.90;;
18378;SDS011;27025;51.986;5.984;2023-06-26T06:46:11;7.13;;;3.95;;
18378;SDS011;27025;51.986;5.984;2023-06-26T06:48:37;7.70;;;3.60;;
18378;SDS011;27025;51.986;5.984;2023-06-26T06:51:04;7.28;;;3.40;;
18378;SDS011;27025;51.986;5.984;2023-06-26T06:53:30;6.47;;;3.42;;
18378;SDS011;27025;51.986;5.984;2023-06-26T06:55:56;8.65;;;3.25;;
18378;SDS011;27025;51.986;5.984;2023-06-26T06:58:22;6.90;;;3.30;;
18378;SDS011;27025;51.986;5.984;2023-06-26T07:00:49;5.43;;;3.47;;
18378;SDS011;27025;51.986;5.984;2023-06-26T07:03:16;4.78;;;3.33;;
18378;SDS011;27025;51.986;5.984;2023-06-26T07:05:43;4.90;;;3.45;;
18378;SDS011;27025;51.986;5.984;2023-06-26T07:08:09;7.70;;;3.53;;
18378;SDS011;27025;51.986;5.984;2023-06-26T07:10:35;7.68;;;3.45;;
18378;SDS011;27025;51.986;5.984;2023-06-26T07:13:01;5.28;;;3.20;;
18378;SDS011;27025;51.986;5.984;2023-06-26T07:15:27;7.32;;;3.70;;
18378;SDS011;27025;51.986;5.984;2023-06-26T07:17:53;6.82;;;3.70;;
18378;SDS011;27025;51.986;5.984;2023-06-26T07:20:20;4.60;;;3.40;;
18378;SDS011;27025;51.986;5.984;2023-06-26T07:22:46;6.43;;;3.30;;
18378;SDS011;27025;51.986;5.984;2023-06-26T07:25:12;5.00;;;3.15;;
18378;SDS011;27025;51.986;5.984;2023-06-26T07:27:38;7.95;;;3.35;;
18378;SDS011;27025;51.986;5.984;2023-06-26T07:30:04;7.65;;;3.50;;
18378;SDS011;27025;51.986;5.984;2023-06-26T07:32:30;4.40;;;3.42;;
18378;SDS011;27025;51.986;5.984;2023-06-26T07:34:56;6.07;;;3.60;;
18378;SDS011;27025;51.986;5.984;2023-06-26T07:37:22;8.10;;;3.55;;
18378;SDS011;27025;51.986;5.984;2023-06-26T07:39:48;6.53;;;3.35;;
18378;SDS011;27025;51.986;5.984;2023-06-26T07:42:14;5.50;;;3.08;;
18378;SDS011;27025;51.986;5.984;2023-06-26T07:44:44;8.15;;;3.40;;
18378;SDS011;27025;51.986;5.984;2023-06-26T07:47:10;6.53;;;4.10;;
18378;SDS011;27025;51.986;5.984;2023-06-26T07:49:36;8.10;;;3.60;;
18378;SDS011;27025;51.986;5.984;2023-06-26T07:52:04;6.65;;;3.60;;
18378;SDS011;27025;51.986;5.984;2023-06-26T07:54:30;8.32;;;3.60;;
18378;SDS011;27025;51.986;5.984;2023-06-26T07:56:57;5.75;;;3.40;;
18378;SDS011;27025;51.986;5.984;2023-06-26T07:59:23;5.55;;;3.65;;
18378;SDS011;27025;51.986;5.984;2023-06-26T08:01:50;4.55;;;3.10;;
18378;SDS011;27025;51.986;5.984;2023-06-26T08:04:18;6.82;;;3.53;;
18378;SDS011;27025;51.986;5.984;2023-06-26T08:06:45;8.75;;;3.47;;
18378;SDS011;27025;51.986;5.984;2023-06-26T08:09:11;4.82;;;3.28;;
18378;SDS011;27025;51.986;5.984;2023-06-26T08:11:38;5.47;;;3.17;;
18378;SDS011;27025;51.986;5.984;2023-06-26T08:14:04;4.80;;;3.22;;
18378;SDS011;27025;51.986;5.984;2023-06-26T08:16:30;5.60;;;3.42;;
18378;SDS011;27025;51.986;5.984;2023-06-26T08:18:56;7.20;;;3.53;;
18378;SDS011;27025;51.986;5.984;2023-06-26T08:21:22;7.72;;;3.22;;
18378;SDS011;27025;51.986;5.984;2023-06-26T08:23:48;5.63;;;3.55;;
18378;SDS011;27025;51.986;5.984;2023-06-26T08:26:14;9.05;;;3.35;;
18378;SDS011;27025;51.986;5.984;2023-06-26T08:28:40;6.90;;;3.20;;
18378;SDS011;27025;51.986;5.984;2023-06-26T08:31:06;4.97;;;3.47;;
18378;SDS011;27025;51.986;5.984;2023-06-26T08:33:32;7.93;;;3.38;;
18378;SDS011;27025;51.986;5.984;2023-06-26T08:35:58;4.97;;;3.10;;
18378;SDS011;27025;51.986;5.984;2023-06-26T08:38:24;5.53;;;3.15;;
18378;SDS011;27025;51.986;5.984;2023-06-26T08:40:50;8.52;;;3.45;;
18378;SDS011;27025;51.986;5.984;2023-06-26T08:43:16;6.45;;;3.30;;
18378;SDS011;27025;51.986;5.984;2023-06-26T08:45:42;3.78;;;3.30;;
18378;SDS011;27025;51.986;5.984;2023-06-26T08:48:08;5.85;;;3.58;;
18378;SDS011;27025;51.986;5.984;2023-06-26T08:50:35;4.90;;;3.30;;
18378;SDS011;27025;51.986;5.984;2023-06-26T08:55:29;4.93;;;3.50;;
18378;SDS011;27025;51.986;5.984;2023-06-26T08:57:57;6.45;;;3.50;;
18378;SDS011;27025;51.986;5.984;2023-06-26T09:00:23;5.65;;;3.65;;
18378;SDS011;27025;51.986;5.984;2023-06-26T09:02:49;6.68;;;3.38;;
18378;SDS011;27025;51.986;5.984;2023-06-26T09:05:15;6.32;;;3.95;;
18378;SDS011;27025;51.986;5.984;2023-06-26T09:07:41;6.53;;;3.95;;
18378;SDS011;27025;51.986;5.984;2023-06-26T09:10:07;5.95;;;3.20;;
18378;SDS011;27025;51.986;5.984;2023-06-26T09:12:33;4.88;;;2.90;;
18378;SDS011;27025;51.986;5.984;2023-06-26T09:15:00;3.78;;;2.80;;
18378;SDS011;27025;51.986;5.984;2023-06-26T09:17:29;5.05;;;2.78;;
18378;SDS011;27025;51.986;5.984;2023-06-26T09:19:55;6.07;;;2.63;;
18378;SDS011;27025;51.986;5.984;2023-06-26T09:22:21;7.68;;;2.42;;
18378;SDS011;27025;51.986;5.984;2023-06-26T09:24:47;4.05;;;2.60;;
18378;SDS011;27025;51.986;5.984;2023-06-26T09:27:14;5.00;;;2.38;;
18378;SDS011;27025;51.986;5.984;2023-06-26T09:29:40;3.50;;;2.10;;
18378;SDS011;27025;51.986;5.984;2023-06-26T09:32:07;4.95;;;2.47;;
18378;SDS011;27025;51.986;5.984;2023-06-26T09:34:34;4.30;;;2.13;;
18378;SDS011;27025;51.986;5.984;2023-06-26T09:37:00;7.50;;;1.95;;
18378;SDS011;27025;51.986;5.984;2023-06-26T09:39:32;3.47;;;1.88;;
18378;SDS011;27025;51.986;5.984;2023-06-26T09:41:58;5.72;;;1.85;;
18378;SDS011;27025;51.986;5.984;2023-06-26T09:44:24;4.68;;;2.00;;
18378;SDS011;27025;51.986;5.984;2023-06-26T09:46:50;5.03;;;1.70;;
18378;SDS011;27025;51.986;5.984;2023-06-26T09:49:18;3.92;;;1.73;;
18378;SDS011;27025;51.986;5.984;2023-06-26T09:51:44;3.83;;;1.50;;
18378;SDS011;27025;51.986;5.984;2023-06-26T09:54:10;4.32;;;1.70;;
18378;SDS011;27025;51.986;5.984;2023-06-26T09:56:36;5.40;;;1.55;;
18378;SDS011;27025;51.986;5.984;2023-06-26T09:59:03;4.75;;;1.80;;
18378;SDS011;27025;51.986;5.984;2023-06-26T10:01:29;4.15;;;1.90;;
18378;SDS011;27025;51.986;5.984;2023-06-26T10:03:56;6.35;;;1.70;;
18378;SDS011;27025;51.986;5.984;2023-06-26T10:06:24;27.05;;;2.50;;
18378;SDS011;27025;51.986;5.984;2023-06-26T10:08:53;3.65;;;1.73;;
18378;SDS011;27025;51.986;5.984;2023-06-26T10:11:21;4.35;;;1.90;;
18378;SDS011;27025;51.986;5.984;2023-06-26T10:13:47;5.05;;;1.85;;
18378;SDS011;27025;51.986;5.984;2023-06-26T10:16:17;4.57;;;1.70;;
18378;SDS011;27025;51.986;5.984;2023-06-26T10:18:45;5.10;;;2.00;;
18378;SDS011;27025;51.986;5.984;2023-06-26T10:21:11;4.22;;;1.70;;
18378;SDS011;27025;51.986;5.984;2023-06-26T10:23:38;6.57;;;2.00;;
18378;SDS011;27025;51.986;5.984;2023-06-26T10:26:05;7.00;;;1.98;;
18378;SDS011;27025;51.986;5.984;2023-06-26T10:28:32;7.13;;;1.88;;
18378;SDS011;27025;51.986;5.984;2023-06-26T10:31:00;5.57;;;1.70;;
18378;SDS011;27025;51.986;5.984;2023-06-26T10:33:27;11.50;;;2.00;;
18378;SDS011;27025;51.986;5.984;2023-06-26T10:35:53;5.13;;;1.70;;
18378;SDS011;27025;51.986;5.984;2023-06-26T10:38:19;5.32;;;1.60;;
18378;SDS011;27025;51.986;5.984;2023-06-26T10:40:46;5.95;;;1.98;;
18378;SDS011;27025;51.986;5.984;2023-06-26T10:43:16;3.47;;;1.60;;
18378;SDS011;27025;51.986;5.984;2023-06-26T10:45:44;3.72;;;1.50;;
18378;SDS011;27025;51.986;5.984;2023-06-26T10:48:12;4.68;;;1.70;;
18378;SDS011;27025;51.986;5.984;2023-06-26T10:50:38;3.80;;;1.52;;
18378;SDS011;27025;51.986;5.984;2023-06-26T10:55:30;3.72;;;1.90;;
18378;SDS011;27025;51.986;5.984;2023-06-26T10:57:56;4.97;;;1.70;;
18378;SDS011;27025;51.986;5.984;2023-06-26T11:00:22;3.47;;;1.50;;
18378;SDS011;27025;51.986;5.984;2023-06-26T11:02:49;2.03;;;1.40;;
18378;SDS011;27025;51.986;5.984;2023-06-26T11:05:25;3.17;;;1.60;;
18378;SDS011;27025;51.986;5.984;2023-06-26T11:08:04;3.15;;;1.40;;
18378;SDS011;27025;51.986;5.984;2023-06-26T11:10:47;3.58;;;1.50;;
18378;SDS011;27025;51.986;5.984;2023-06-26T11:13:17;2.38;;;1.52;;
18378;SDS011;27025;51.986;5.984;2023-06-26T11:15:44;3.58;;;1.60;;
18378;SDS011;27025;51.986;5.984;2023-06-26T11:18:10;5.90;;;1.80;;
18378;SDS011;27025;51.986;5.984;2023-06-26T11:20:36;3.45;;;1.70;;
18378;SDS011;27025;51.986;5.984;2023-06-26T11:23:03;2.10;;;1.48;;
18378;SDS011;27025;51.986;5.984;2023-06-26T11:25:34;2.67;;;1.60;;
18378;SDS011;27025;51.986;5.984;2023-06-26T11:28:00;4.63;;;1.65;;
18378;SDS011;27025;51.986;5.984;2023-06-26T11:30:27;2.63;;;1.50;;
18378;SDS011;27025;51.986;5.984;2023-06-26T11:32:53;3.88;;;1.63;;
18378;SDS011;27025;51.986;5.984;2023-06-26T11:35:22;2.45;;;1.45;;
18378;SDS011;27025;51.986;5.984;2023-06-26T11:37:55;3.55;;;1.52;;
18378;SDS011;27025;51.986;5.984;2023-06-26T11:40:22;1.83;;;1.38;;
18378;SDS011;27025;51.986;5.984;2023-06-26T11:42:52;6.20;;;1.60;;
18378;SDS011;27025;51.986;5.984;2023-06-26T11:45:19;2.63;;;1.30;;
18378;SDS011;27025;51.986;5.984;2023-06-26T11:47:45;2.30;;;1.58;;
18378;SDS011;27025;51.986;5.984;2023-06-26T11:50:15;3.15;;;1.33;;
18378;SDS011;27025;51.986;5.984;2023-06-26T11:52:42;1.38;;;1.27;;
18378;SDS011;27025;51.986;5.984;2023-06-26T11:55:08;2.42;;;1.30;;
18378;SDS011;27025;51.986;5.984;2023-06-26T11:57:37;2.08;;;1.40;;
18378;SDS011;27025;51.986;5.984;2023-06-26T12:00:10;2.35;;;1.63;;
18378;SDS011;27025;51.986;5.984;2023-06-26T12:02:36;6.22;;;1.50;;
18378;SDS011;27025;51.986;5.984;2023-06-26T12:05:03;2.38;;;1.50;;
18378;SDS011;27025;51.986;5.984;2023-06-26T12:07:29;4.07;;;1.67;;
18378;SDS011;27025;51.986;5.984;2023-06-26T12:09:56;5.65;;;1.73;;
18378;SDS011;27025;51.986;5.984;2023-06-26T12:12:23;5.43;;;1.67;;
18378;SDS011;27025;51.986;5.984;2023-06-26T12:14:50;2.85;;;1.67;;
18378;SDS011;27025;51.986;5.984;2023-06-26T12:17:16;2.47;;;1.45;;
18378;SDS011;27025;51.986;5.984;2023-06-26T12:19:45;3.33;;;1.70;;
18378;SDS011;27025;51.986;5.984;2023-06-26T12:22:15;3.05;;;1.80;;
18378;SDS011;27025;51.986;5.984;2023-06-26T12:24:41;5.00;;;1.70;;
18378;SDS011;27025;51.986;5.984;2023-06-26T12:27:08;5.15;;;1.60;;
18378;SDS011;27025;51.986;5.984;2023-06-26T12:29:35;8.40;;;1.83;;
18378;SDS011;27025;51.986;5.984;2023-06-26T12:32:02;3.58;;;1.63;;
18378;SDS011;27025;51.986;5.984;2023-06-26T12:34:32;3.40;;;1.73;;
18378;SDS011;27025;51.986;5.984;2023-06-26T12:37:02;5.15;;;1.60;;
18378;SDS011;27025;51.986;5.984;2023-06-26T12:39:28;4.72;;;1.50;;
18378;SDS011;27025;51.986;5.984;2023-06-26T12:41:59;4.38;;;1.52;;
18378;SDS011;27025;51.986;5.984;2023-06-26T12:44:29;3.58;;;1.58;;
18378;SDS011;27025;51.986;5.984;2023-06-26T12:47:05;3.95;;;1.52;;
18378;SDS011;27025;51.986;5.984;2023-06-26T12:52:02;4.45;;;1.55;;
18378;SDS011;27025;51.986;5.984;2023-06-26T12:54:28;4.15;;;1.42;;
18378;SDS011;27025;51.986;5.984;2023-06-26T12:56:55;2.60;;;1.50;;
18378;SDS011;27025;51.986;5.984;2023-06-26T12:59:21;2.35;;;1.50;;
18378;SDS011;27025;51.986;5.984;2023-06-26T13:01:47;4.53;;;1.45;;
18378;SDS011;27025;51.986;5.984;2023-06-26T13:04:13;4.35;;;1.67;;
18378;SDS011;27025;51.986;5.984;2023-06-26T13:06:39;3.33;;;1.55;;
18378;SDS011;27025;51.986;5.984;2023-06-26T13:09:05;5.35;;;2.00;;
18378;SDS011;27025;51.986;5.984;2023-06-26T13:11:32;3.63;;;1.52;;
18378;SDS011;27025;51.986;5.984;2023-06-26T13:13:58;3.45;;;1.75;;
18378;SDS011;27025;51.986;5.984;2023-06-26T13:16:24;3.40;;;1.70;;
18378;SDS011;27025;51.986;5.984;2023-06-26T13:18:50;6.03;;;1.80;;
18378;SDS011;27025;51.986;5.984;2023-06-26T13:21:16;2.97;;;1.30;;
18378;SDS011;27025;51.986;5.984;2023-06-26T13:23:43;2.53;;;1.40;;
18378;SDS011;27025;51.986;5.984;2023-06-26T13:26:09;2.95;;;1.50;;
18378;SDS011;27025;51.986;5.984;2023-06-26T13:28:36;3.08;;;1.50;;
18378;SDS011;27025;51.986;5.984;2023-06-26T13:31:02;3.38;;;1.60;;
18378;SDS011;27025;51.986;5.984;2023-06-26T13:33:28;4.75;;;1.50;;
18378;SDS011;27025;51.986;5.984;2023-06-26T13:35:54;2.85;;;1.48;;
18378;SDS011;27025;51.986;5.984;2023-06-26T13:38:21;3.05;;;1.30;;
18378;SDS011;27025;51.986;5.984;2023-06-26T13:40:50;3.90;;;1.20;;
18378;SDS011;27025;51.986;5.984;2023-06-26T13:43:16;2.00;;;1.20;;
18378;SDS011;27025;51.986;5.984;2023-06-26T13:45:42;5.43;;;1.40;;
18378;SDS011;27025;51.986;5.984;2023-06-26T13:48:08;4.20;;;1.48;;
18378;SDS011;27025;51.986;5.984;2023-06-26T13:50:34;2.28;;;1.17;;
18378;SDS011;27025;51.986;5.984;2023-06-26T13:53:00;3.97;;;1.20;;
18378;SDS011;27025;51.986;5.984;2023-06-26T13:55:27;2.78;;;1.35;;
18378;SDS011;27025;51.986;5.984;2023-06-26T13:57:53;3.42;;;1.25;;
18378;SDS011;27025;51.986;5.984;2023-06-26T14:00:19;3.15;;;1.60;;
18378;SDS011;27025;51.986;5.984;2023-06-26T14:02:47;2.17;;;1.15;;
18378;SDS011;27025;51.986;5.984;2023-06-26T14:05:13;4.65;;;1.50;;
18378;SDS011;27025;51.986;5.984;2023-06-26T14:07:39;2.60;;;1.20;;
18378;SDS011;27025;51.986;5.984;2023-06-26T14:10:05;4.90;;;1.30;;
18378;SDS011;27025;51.986;5.984;2023-06-26T14:12:31;3.38;;;1.48;;
18378;SDS011;27025;51.986;5.984;2023-06-26T14:14:58;5.68;;;1.20;;
18378;SDS011;27025;51.986;5.984;2023-06-26T14:17:24;3.17;;;1.50;;
18378;SDS011;27025;51.986;5.984;2023-06-26T14:19:50;3.10;;;1.35;;
18378;SDS011;27025;51.986;5.984;2023-06-26T14:22:17;4.63;;;1.20;;
18378;SDS011;27025;51.986;5.984;2023-06-26T14:24:43;2.72;;;1.30;;
18378;SDS011;27025;51.986;5.984;2023-06-26T14:27:09;1.65;;;1.27;;
18378;SDS011;27025;51.986;5.984;2023-06-26T14:29:36;3.78;;;1.35;;
18378;SDS011;27025;51.986;5.984;2023-06-26T14:32:02;2.67;;;1.30;;
18378;SDS011;27025;51.986;5.984;2023-06-26T14:34:28;3.53;;;1.42;;
18378;SDS011;27025;51.986;5.984;2023-06-26T14:36:54;2.13;;;1.20;;
18378;SDS011;27025;51.986;5.984;2023-06-26T14:39:20;2.83;;;1.33;;
18378;SDS011;27025;51.986;5.984;2023-06-26T14:41:47;2.97;;;1.40;;
18378;SDS011;27025;51.986;5.984;2023-06-26T14:44:13;3.80;;;1.40;;
18378;SDS011;27025;51.986;5.984;2023-06-26T14:46:39;2.95;;;1.10;;
18378;SDS011;27025;51.986;5.984;2023-06-26T14:49:05;5.40;;;1.50;;